createdAt,value
2022-12-09T00:00:31.170Z,4.00
2022-12-09T00:02:59.096Z,3.93
2022-12-09T00:05:26.109Z,3.93
2022-12-09T00:07:53.091Z,3.77
2022-12-09T00:10:20.340Z,4.10
2022-12-09T00:12:47.421Z,4.10
2022-12-09T00:15:14.535Z,3.90
2022-12-09T00:17:41.405Z,3.67
2022-12-09T00:20:09.293Z,3.50
2022-12-09T00:22:36.566Z,3.70
2022-12-09T00:25:03.668Z,3.83
2022-12-09T00:27:30.660Z,3.43
2022-12-09T00:29:57.521Z,3.50
2022-12-09T00:32:24.612Z,4.03
2022-12-09T00:34:51.785Z,3.67
2022-12-09T00:37:19.137Z,3.50
2022-12-09T00:39:46.355Z,3.30
2022-12-09T00:42:13.436Z,2.90
2022-12-09T00:44:40.502Z,3.27
2022-12-09T00:47:07.490Z,3.07
2022-12-09T00:49:34.782Z,3.20
2022-12-09T00:52:01.660Z,3.40
2022-12-09T00:54:28.810Z,3.23
2022-12-09T00:56:57.299Z,3.00
2022-12-09T00:59:24.240Z,3.50
2022-12-09T01:01:51.392Z,2.90
2022-12-09T01:04:18.670Z,3.33
2022-12-09T01:06:45.655Z,2.60
2022-12-09T01:09:14.067Z,3.27
2022-12-09T01:11:41.140Z,3.30
2022-12-09T01:14:08.142Z,3.47
2022-12-09T01:16:35.803Z,3.10
2022-12-09T01:19:06.020Z,3.30
2022-12-09T01:21:34.287Z,3.20
2022-12-09T01:24:01.887Z,3.33
2022-12-09T01:26:28.952Z,3.30
2022-12-09T01:28:57.622Z,3.20
2022-12-09T01:31:25.696Z,2.90
2022-12-09T01:33:55.437Z,2.93
2022-12-09T01:36:24.943Z,2.90
2022-12-09T01:38:52.569Z,3.20
2022-12-09T01:41:19.955Z,2.77
2022-12-09T01:44:18.170Z,3.00
2022-12-09T01:46:45.643Z,2.90
2022-12-09T01:49:17.107Z,2.90
2022-12-09T01:51:46.241Z,2.90
2022-12-09T01:54:13.377Z,2.60
2022-12-09T01:56:40.914Z,2.70
2022-12-09T01:59:13.424Z,3.10
2022-12-09T02:01:41.972Z,3.07
2022-12-09T02:04:09.153Z,2.93
2022-12-09T02:06:37.822Z,2.50
2022-12-09T02:09:05.343Z,2.70
2022-12-09T02:11:35.915Z,3.03
2022-12-09T02:14:11.889Z,2.90
2022-12-09T02:16:50.647Z,2.90
2022-12-09T02:19:30.239Z,2.53
2022-12-09T02:21:59.515Z,2.57
2022-12-09T02:24:47.048Z,2.60
2022-12-09T02:27:20.660Z,2.70
2022-12-09T02:30:08.171Z,2.30
2022-12-09T02:32:54.506Z,2.57
2022-12-09T02:35:30.414Z,2.70
2022-12-09T02:38:24.598Z,2.20
2022-12-09T02:41:02.127Z,2.63
2022-12-09T02:43:32.825Z,2.40
2022-12-09T02:46:01.027Z,2.77
2022-12-09T02:48:43.225Z,2.53
2022-12-09T02:51:14.193Z,2.90
2022-12-09T02:53:42.945Z,2.80
2022-12-09T02:56:10.410Z,2.50
2022-12-09T02:58:37.461Z,2.70
2022-12-09T03:01:04.519Z,2.40
2022-12-09T03:03:34.001Z,2.63
2022-12-09T03:06:05.918Z,2.50
2022-12-09T03:08:54.059Z,2.43
2022-12-09T03:11:23.721Z,2.60
2022-12-09T03:14:09.995Z,2.23
2022-12-09T03:16:38.487Z,2.40
2022-12-09T03:19:09.279Z,2.13
2022-12-09T03:21:40.053Z,2.30
2022-12-09T03:24:09.657Z,3.23
2022-12-09T03:26:38.353Z,2.33
2022-12-09T03:29:08.787Z,2.57
2022-12-09T03:31:36.449Z,2.40
2022-12-09T03:34:05.312Z,2.47
2022-12-09T03:36:38.528Z,2.37
2022-12-09T03:39:11.186Z,2.20
2022-12-09T03:41:39.150Z,2.33
2022-12-09T03:44:13.443Z,2.43
2022-12-09T03:46:41.045Z,2.30
2022-12-09T03:49:08.234Z,2.43
2022-12-09T03:51:46.862Z,2.70
2022-12-09T03:54:35.463Z,2.40
2022-12-09T03:57:02.917Z,2.67
2022-12-09T03:59:34.118Z,2.97
2022-12-09T04:02:01.462Z,2.37
2022-12-09T04:04:28.899Z,2.33
2022-12-09T04:06:56.065Z,2.40
2022-12-09T04:09:23.384Z,2.37
2022-12-09T04:11:50.480Z,2.60
2022-12-09T04:14:17.785Z,2.40
2022-12-09T04:16:45.355Z,3.10
2022-12-09T04:19:12.501Z,2.50
2022-12-09T04:21:39.819Z,3.03
2022-12-09T04:24:07.387Z,2.60
2022-12-09T04:26:34.898Z,3.00
2022-12-09T04:29:02.518Z,2.50
2022-12-09T04:31:29.716Z,2.80
2022-12-09T04:33:57.521Z,2.87
2022-12-09T04:36:24.497Z,2.60
2022-12-09T04:38:51.728Z,2.73
2022-12-09T04:41:18.942Z,2.50
2022-12-09T04:43:45.957Z,2.80
2022-12-09T04:46:15.378Z,2.73
2022-12-09T04:48:42.500Z,2.93
2022-12-09T04:51:10.725Z,2.47
2022-12-09T04:53:38.211Z,2.87
2022-12-09T04:56:09.268Z,3.00
2022-12-09T04:58:36.216Z,3.20
2022-12-09T05:01:09.339Z,2.93
2022-12-09T05:03:37.761Z,2.90
2022-12-09T05:06:10.960Z,3.47
2022-12-09T05:08:39.086Z,2.80
2022-12-09T05:11:06.519Z,3.50
2022-12-09T05:13:34.304Z,3.57
2022-12-09T05:16:15.442Z,3.17
2022-12-09T05:18:44.004Z,3.17
2022-12-09T05:21:17.265Z,3.30
2022-12-09T05:23:45.083Z,3.17
2022-12-09T05:26:14.488Z,3.30
2022-12-09T05:28:42.271Z,3.87
2022-12-09T05:31:15.611Z,3.33
2022-12-09T05:33:43.988Z,3.73
2022-12-09T05:36:12.424Z,3.63
2022-12-09T05:38:39.953Z,3.60
2022-12-09T05:41:07.428Z,3.23
2022-12-09T05:43:35.148Z,3.10
2022-12-09T05:46:02.900Z,3.13
2022-12-09T05:48:30.332Z,3.77
2022-12-09T05:51:02.841Z,3.70
2022-12-09T05:53:30.432Z,4.53
2022-12-09T05:55:57.638Z,3.73
2022-12-09T05:58:24.685Z,3.23
2022-12-09T06:00:52.058Z,3.63
2022-12-09T06:03:19.190Z,3.87
2022-12-09T06:05:47.062Z,3.60
2022-12-09T06:08:14.222Z,3.37
2022-12-09T06:10:41.747Z,3.37
2022-12-09T06:13:09.400Z,3.27
2022-12-09T06:15:36.727Z,3.17
2022-12-09T06:18:03.978Z,3.50
2022-12-09T06:20:31.379Z,3.27
2022-12-09T06:22:58.419Z,3.47
2022-12-09T06:25:25.406Z,3.33
2022-12-09T06:27:53.889Z,3.50
2022-12-09T06:30:21.608Z,3.63
2022-12-09T06:32:49.057Z,3.43
2022-12-09T06:35:17.022Z,3.20
2022-12-09T06:37:44.376Z,3.40
2022-12-09T06:40:11.961Z,3.60
2022-12-09T06:42:39.026Z,3.57
2022-12-09T06:45:07.192Z,3.47
2022-12-09T06:47:35.180Z,3.70
2022-12-09T06:50:06.468Z,3.30
2022-12-09T06:52:34.510Z,3.90
2022-12-09T06:55:02.306Z,3.07
2022-12-09T06:57:29.469Z,3.57
2022-12-09T06:59:56.866Z,3.80
2022-12-09T07:02:24.306Z,4.10
2022-12-09T07:04:55.589Z,3.60
2022-12-09T07:07:23.459Z,3.47
2022-12-09T07:09:51.238Z,3.33
2022-12-09T07:12:18.482Z,3.53
2022-12-09T07:14:45.647Z,3.57
2022-12-09T07:17:20.837Z,3.87
2022-12-09T07:19:48.487Z,3.67
2022-12-09T07:22:16.072Z,3.77
2022-12-09T07:24:43.924Z,3.80
2022-12-09T07:27:19.221Z,4.30
2022-12-09T07:29:47.244Z,4.80
2022-12-09T07:32:14.882Z,5.20
2022-12-09T07:34:43.178Z,6.03
2022-12-09T07:37:10.790Z,5.37
2022-12-09T07:39:38.193Z,5.63
2022-12-09T07:42:05.902Z,5.37
2022-12-09T07:44:33.149Z,4.87
2022-12-09T07:47:00.340Z,5.20
2022-12-09T07:49:27.550Z,5.00
2022-12-09T07:51:54.849Z,4.80
2022-12-09T07:54:22.010Z,4.57
2022-12-09T07:56:49.453Z,4.90
2022-12-09T07:59:17.126Z,5.30
2022-12-09T08:01:45.390Z,5.57
2022-12-09T08:04:13.330Z,5.27
2022-12-09T08:06:40.691Z,5.07
2022-12-09T08:09:11.294Z,4.57
2022-12-09T08:11:39.425Z,5.50
2022-12-09T08:14:12.219Z,5.77
2022-12-09T08:16:42.066Z,5.87
2022-12-09T08:19:10.438Z,5.70
2022-12-09T08:21:39.023Z,5.37
2022-12-09T08:24:08.249Z,5.80
2022-12-09T08:26:40.404Z,5.73
2022-12-09T08:29:12.911Z,5.93
2022-12-09T08:31:44.628Z,5.50
2022-12-09T08:34:13.333Z,5.90
2022-12-09T08:36:41.723Z,5.23
2022-12-09T08:39:10.078Z,5.23
2022-12-09T08:41:39.441Z,5.77
2022-12-09T08:44:17.998Z,5.60
2022-12-09T08:46:48.843Z,4.87
2022-12-09T08:49:19.243Z,6.00
2022-12-09T08:51:48.426Z,6.33
2022-12-09T08:54:15.901Z,8.43
2022-12-09T08:56:52.198Z,6.73
2022-12-09T08:59:19.479Z,7.30
2022-12-09T09:01:47.365Z,7.67
2022-12-09T09:04:17.163Z,6.83
2022-12-09T09:06:46.669Z,7.93
2022-12-09T09:09:14.683Z,7.10
2022-12-09T09:11:43.436Z,6.80
2022-12-09T09:14:13.316Z,6.87
2022-12-09T09:16:42.006Z,6.10
2022-12-09T09:19:10.519Z,5.67
2022-12-09T09:21:37.840Z,6.17
2022-12-09T09:24:10.437Z,5.93
2022-12-09T09:26:41.646Z,5.70
2022-12-09T09:29:11.827Z,5.67
2022-12-09T09:31:39.115Z,5.73
2022-12-09T09:34:06.583Z,6.57
2022-12-09T09:36:34.102Z,6.07
2022-12-09T09:39:01.505Z,6.50
2022-12-09T09:41:46.662Z,7.13
2022-12-09T09:44:23.455Z,6.53
2022-12-09T09:46:51.926Z,6.50
2022-12-09T09:49:40.029Z,6.93
2022-12-09T09:52:17.631Z,6.63
2022-12-09T09:54:45.129Z,6.53
2022-12-09T09:57:22.909Z,6.23
2022-12-09T10:00:08.801Z,7.00
2022-12-09T10:03:02.275Z,7.20
2022-12-09T10:05:50.850Z,7.90
2022-12-09T10:08:31.248Z,8.50
2022-12-09T10:11:10.884Z,10.37
2022-12-09T10:14:15.242Z,11.90
2022-12-09T10:16:45.840Z,13.43
2022-12-09T10:19:23.656Z,14.27
2022-12-09T10:21:52.788Z,14.57
2022-12-09T10:24:37.300Z,14.80
2022-12-09T10:27:35.839Z,16.03
2022-12-09T10:30:23.209Z,15.23
2022-12-09T10:32:50.936Z,13.97
2022-12-09T10:35:23.772Z,15.47
2022-12-09T10:37:55.001Z,14.40
2022-12-09T10:40:25.805Z,14.83
2022-12-09T10:43:14.528Z,14.80
2022-12-09T10:46:17.386Z,13.33
2022-12-09T10:48:48.902Z,12.63
2022-12-09T10:51:22.938Z,11.53
2022-12-09T10:54:21.731Z,10.20
2022-12-09T10:57:27.469Z,9.33
2022-12-09T10:59:59.383Z,9.07
2022-12-09T11:02:27.262Z,9.57
2022-12-09T11:04:55.715Z,7.87
2022-12-09T11:07:27.066Z,9.27
2022-12-09T11:09:57.728Z,9.90
2022-12-09T11:12:29.986Z,10.37
2022-12-09T11:15:00.606Z,11.43
2022-12-09T11:17:36.265Z,12.47
2022-12-09T11:20:07.970Z,12.50
2022-12-09T11:22:43.502Z,16.17
2022-12-09T11:25:24.743Z,14.97
2022-12-09T11:27:59.062Z,15.03
2022-12-09T11:30:35.706Z,15.00
2022-12-09T11:33:15.377Z,14.77
2022-12-09T11:35:45.856Z,14.40
2022-12-09T11:38:41.452Z,13.57
2022-12-09T11:41:36.856Z,12.00
2022-12-09T11:44:22.159Z,11.80
2022-12-09T11:47:13.326Z,10.73
2022-12-09T11:49:57.838Z,9.50
2022-12-09T11:52:28.777Z,10.10
2022-12-09T11:55:10.743Z,10.47
2022-12-09T11:57:53.163Z,11.57
2022-12-09T12:00:29.446Z,12.17
2022-12-09T12:03:19.383Z,16.17
2022-12-09T12:05:50.439Z,24.63
2022-12-09T12:08:43.788Z,22.47
2022-12-09T12:11:19.193Z,21.83
2022-12-09T12:13:51.511Z,18.80
2022-12-09T12:16:32.492Z,16.80
2022-12-09T12:19:21.547Z,14.67
2022-12-09T12:22:10.047Z,13.37
2022-12-09T12:24:55.078Z,10.70
2022-12-09T12:27:43.754Z,14.13
2022-12-09T12:30:14.000Z,14.80
2022-12-09T12:36:12.849Z,16.07
2022-12-09T12:39:00.585Z,17.67
2022-12-09T12:41:43.053Z,20.97
2022-12-09T12:44:43.455Z,19.90
2022-12-09T12:47:43.804Z,17.90
2022-12-09T12:50:10.709Z,16.07
2022-12-09T12:52:56.659Z,16.43
2022-12-09T12:55:46.495Z,14.43
2022-12-09T12:58:13.356Z,12.63
2022-12-09T13:00:46.156Z,13.30
2022-12-09T13:03:25.154Z,11.20
2022-12-09T13:05:54.345Z,11.33
2022-12-09T13:08:27.517Z,10.17
2022-12-09T13:10:57.480Z,9.00
2022-12-09T13:13:29.549Z,7.57
2022-12-09T13:16:03.904Z,7.63
2022-12-09T13:18:37.005Z,6.87
2022-12-09T13:21:05.883Z,5.70
2022-12-09T13:24:00.384Z,5.30
2022-12-09T13:26:41.129Z,5.23
2022-12-09T13:29:45.111Z,4.73
2022-12-09T13:32:51.262Z,4.10
2022-12-09T13:35:33.285Z,4.47
2022-12-09T13:38:00.862Z,4.17
2022-12-09T13:40:31.341Z,4.77
2022-12-09T13:43:10.279Z,7.60
2022-12-09T13:45:43.280Z,9.37
2022-12-09T13:48:16.916Z,11.23
2022-12-09T13:50:57.786Z,10.53
2022-12-09T13:53:27.901Z,11.23
2022-12-09T13:56:21.715Z,12.30
2022-12-09T13:59:11.166Z,10.00
2022-12-09T14:01:51.437Z,8.33
2022-12-09T14:04:29.401Z,8.77
2022-12-09T14:07:14.540Z,8.23
2022-12-09T14:09:44.498Z,6.83
2022-12-09T14:12:13.205Z,6.40
2022-12-09T14:14:52.078Z,5.93
2022-12-09T14:17:30.575Z,5.97
2022-12-09T14:19:57.786Z,6.03
2022-12-09T14:22:24.617Z,13.00
2022-12-09T14:24:53.044Z,27.80
2022-12-09T14:27:31.529Z,29.60
2022-12-09T14:30:03.120Z,21.80
2022-12-09T14:32:37.987Z,18.37
2022-12-09T14:35:10.645Z,12.97
2022-12-09T14:38:00.690Z,11.93
2022-12-09T14:40:36.202Z,13.93
2022-12-09T14:43:12.138Z,16.07
2022-12-09T14:45:49.990Z,17.17
2022-12-09T14:48:20.512Z,10.37
2022-12-09T14:50:47.748Z,10.90
2022-12-09T14:53:23.911Z,11.63
2022-12-09T14:55:51.888Z,16.27
2022-12-09T14:58:22.486Z,15.73
2022-12-09T15:01:02.861Z,21.70
2022-12-09T15:03:35.728Z,16.90
2022-12-09T15:06:17.686Z,13.30
2022-12-09T15:08:45.295Z,11.80
2022-12-09T15:11:15.224Z,8.20
2022-12-09T15:13:44.758Z,6.97
2022-12-09T15:16:16.784Z,7.60
2022-12-09T15:18:45.567Z,8.10
2022-12-09T15:21:27.065Z,6.80
2022-12-09T15:23:54.192Z,6.97
2022-12-09T15:26:27.501Z,6.27
2022-12-09T15:28:56.733Z,6.30
2022-12-09T15:31:27.179Z,5.83
2022-12-09T15:33:55.971Z,6.53
2022-12-09T15:36:29.456Z,9.20
2022-12-09T15:39:17.936Z,10.73
2022-12-09T15:42:05.964Z,7.70
2022-12-09T15:44:44.075Z,8.40
2022-12-09T15:47:42.037Z,6.90
2022-12-09T15:50:23.018Z,7.43
2022-12-09T15:52:52.891Z,7.63
2022-12-09T15:55:24.522Z,5.03
2022-12-09T15:57:53.380Z,5.30
2022-12-09T16:00:20.758Z,4.80
2022-12-09T16:02:48.460Z,5.50
2022-12-09T16:05:22.890Z,5.57
2022-12-09T16:07:58.103Z,4.87
2022-12-09T16:10:27.233Z,5.23
2022-12-09T16:13:14.975Z,5.03
2022-12-09T16:15:51.117Z,5.07
2022-12-09T16:18:20.134Z,5.20
2022-12-09T16:21:16.198Z,4.93
2022-12-09T16:23:48.640Z,4.97
2022-12-09T16:26:25.384Z,4.67
2022-12-09T16:28:58.602Z,4.10
2022-12-09T16:31:25.636Z,4.57
2022-12-09T16:33:52.954Z,4.20
2022-12-09T16:36:31.088Z,4.30
2022-12-09T16:39:12.707Z,4.17
2022-12-09T16:41:51.558Z,4.13
2022-12-09T16:44:31.239Z,4.13
2022-12-09T16:47:11.990Z,3.93
2022-12-09T16:49:40.546Z,4.07
2022-12-09T16:52:11.916Z,4.30
2022-12-09T16:54:38.982Z,4.33
2022-12-09T16:57:05.949Z,4.00
2022-12-09T16:59:37.920Z,3.90
2022-12-09T17:02:36.141Z,4.00
2022-12-09T17:05:04.685Z,4.23
2022-12-09T17:07:31.906Z,4.13
2022-12-09T17:09:58.886Z,4.03
2022-12-09T17:12:25.770Z,3.87
2022-12-09T17:14:52.717Z,4.37
2022-12-09T17:17:19.622Z,4.13
2022-12-09T17:19:46.484Z,4.03
2022-12-09T17:22:13.340Z,4.10
2022-12-09T17:24:40.492Z,4.37
2022-12-09T17:27:07.420Z,4.33
2022-12-09T17:29:34.347Z,4.27
2022-12-09T17:32:01.311Z,4.03
2022-12-09T17:34:28.254Z,3.83
2022-12-09T17:36:55.505Z,3.63
2022-12-09T17:39:24.867Z,4.03
2022-12-09T17:41:51.761Z,4.20
2022-12-09T17:44:21.382Z,4.27
2022-12-09T17:46:49.430Z,3.87
2022-12-09T17:49:17.436Z,3.90
2022-12-09T17:51:44.466Z,4.03
2022-12-09T17:54:11.431Z,3.90
2022-12-09T17:56:38.616Z,4.20
2022-12-09T17:59:08.430Z,3.90
2022-12-09T18:01:37.042Z,3.90
2022-12-09T18:04:10.423Z,4.23
2022-12-09T18:06:41.597Z,4.93
2022-12-09T18:09:10.770Z,5.07
2022-12-09T18:11:37.797Z,4.80
2022-12-09T18:14:05.318Z,5.07
2022-12-09T18:16:32.431Z,5.37
2022-12-09T18:19:08.864Z,5.70
2022-12-09T18:21:35.788Z,5.33
2022-12-09T18:24:03.203Z,6.87
2022-12-09T18:26:33.015Z,6.57
2022-12-09T18:29:02.285Z,6.90
2022-12-09T18:31:29.401Z,7.27
2022-12-09T18:33:56.740Z,7.47
2022-12-09T18:36:26.297Z,6.37
2022-12-09T18:38:54.242Z,6.57
2022-12-09T18:41:23.955Z,6.67
2022-12-09T18:43:52.552Z,6.60
2022-12-09T18:46:28.417Z,6.60
2022-12-09T18:49:05.922Z,6.57
2022-12-09T18:51:33.138Z,6.33
2022-12-09T18:54:01.649Z,6.37
2022-12-09T18:56:28.954Z,6.20
2022-12-09T18:59:12.045Z,6.30
2022-12-09T19:01:41.602Z,7.10
2022-12-09T19:04:13.327Z,6.60
2022-12-09T19:06:41.958Z,7.03
2022-12-09T19:09:12.239Z,6.93
2022-12-09T19:11:40.292Z,7.57
2022-12-09T19:14:08.135Z,8.07
2022-12-09T19:16:35.414Z,8.03
2022-12-09T19:19:09.088Z,7.70
2022-12-09T19:21:37.158Z,8.07
2022-12-09T19:24:04.318Z,7.50
2022-12-09T19:26:32.985Z,8.40
2022-12-09T19:29:02.300Z,8.10
2022-12-09T19:31:31.323Z,7.50
2022-12-09T19:34:00.799Z,8.10
2022-12-09T19:36:29.659Z,8.10
2022-12-09T19:38:57.962Z,7.37
2022-12-09T19:41:25.007Z,8.00
2022-12-09T19:43:58.232Z,8.00
2022-12-09T19:46:26.865Z,8.30
2022-12-09T19:48:54.760Z,7.37
2022-12-09T19:51:22.298Z,8.27
2022-12-09T19:53:49.265Z,9.10
2022-12-09T19:56:20.315Z,7.70
2022-12-09T19:58:47.667Z,7.60
2022-12-09T20:01:16.919Z,7.07
2022-12-09T20:03:45.846Z,7.57
2022-12-09T20:06:16.174Z,7.67
2022-12-09T20:08:43.931Z,7.80
2022-12-09T20:11:16.295Z,8.13
2022-12-09T20:13:43.948Z,7.47
2022-12-09T20:16:13.854Z,6.80
2022-12-09T20:18:41.126Z,7.17
2022-12-09T20:21:10.547Z,7.10
2022-12-09T20:23:38.918Z,6.77
2022-12-09T20:26:17.537Z,7.27
2022-12-09T20:28:45.929Z,7.33
2022-12-09T20:31:16.380Z,6.80
2022-12-09T20:33:43.418Z,7.53
2022-12-09T20:36:11.972Z,6.57
2022-12-09T20:38:39.486Z,6.70
2022-12-09T20:41:16.675Z,6.77
2022-12-09T20:43:47.234Z,6.33
2022-12-09T20:46:17.081Z,6.17
2022-12-09T20:48:44.506Z,6.40
2022-12-09T20:51:28.605Z,6.50
2022-12-09T20:53:56.301Z,5.90
2022-12-09T20:56:24.885Z,6.00
2022-12-09T20:58:53.839Z,7.10
2022-12-09T21:01:23.610Z,6.80
2022-12-09T21:03:51.669Z,6.43
2022-12-09T21:06:20.846Z,6.27
2022-12-09T21:08:48.410Z,6.50
2022-12-09T21:11:18.343Z,6.67
2022-12-09T21:13:49.307Z,6.53
2022-12-09T21:16:20.348Z,6.63
2022-12-09T21:18:48.453Z,6.20
2022-12-09T21:21:16.094Z,6.50
2022-12-09T21:23:43.111Z,6.93
2022-12-09T21:26:12.611Z,6.83
2022-12-09T21:28:40.640Z,6.93
2022-12-09T21:31:18.446Z,6.43
2022-12-09T21:33:46.305Z,6.77
2022-12-09T21:36:22.170Z,6.93
2022-12-09T21:38:49.459Z,7.27
2022-12-09T21:41:25.154Z,6.10
2022-12-09T21:43:53.022Z,7.23
2022-12-09T21:46:22.403Z,7.37
2022-12-09T21:48:52.406Z,6.57
2022-12-09T21:51:20.619Z,6.97
2022-12-09T21:53:48.482Z,6.93
2022-12-09T21:56:20.944Z,7.23
2022-12-09T21:58:49.325Z,6.87
2022-12-09T22:01:23.213Z,6.90
2022-12-09T22:03:50.216Z,6.93
2022-12-09T22:06:17.792Z,7.27
2022-12-09T22:08:45.297Z,7.03
2022-12-09T22:11:23.516Z,7.40
2022-12-09T22:13:50.971Z,7.57
2022-12-09T22:16:20.716Z,7.07
2022-12-09T22:18:48.375Z,6.10
2022-12-09T22:21:26.320Z,5.97
2022-12-09T22:23:57.737Z,7.37
2022-12-09T22:26:25.228Z,7.07
2022-12-09T22:28:52.658Z,6.70
2022-12-09T22:31:25.912Z,6.90
2022-12-09T22:33:54.510Z,6.57
2022-12-09T22:36:21.666Z,6.53
2022-12-09T22:38:48.981Z,6.40
2022-12-09T22:41:20.202Z,6.50
2022-12-09T22:43:49.105Z,6.90
2022-12-09T22:46:21.747Z,7.10
2022-12-09T22:48:48.881Z,6.57
2022-12-09T22:51:26.910Z,6.53
2022-12-09T22:53:55.488Z,6.67
2022-12-09T22:56:23.753Z,6.57
2022-12-09T22:58:50.947Z,7.40
2022-12-09T23:01:23.659Z,6.93
2022-12-09T23:03:50.549Z,6.93
2022-12-09T23:06:17.525Z,6.20
2022-12-09T23:08:44.976Z,6.53
2022-12-09T23:11:17.057Z,6.67
2022-12-09T23:13:44.487Z,6.23
2022-12-09T23:16:14.062Z,6.60
2022-12-09T23:18:41.483Z,6.67
2022-12-09T23:21:11.479Z,5.73
2022-12-09T23:23:38.952Z,6.27
2022-12-09T23:26:08.232Z,5.27
2022-12-09T23:28:42.789Z,5.80
2022-12-09T23:31:11.722Z,6.07
2022-12-09T23:33:39.867Z,6.57
2022-12-09T23:36:08.730Z,5.17
2022-12-09T23:38:35.858Z,7.00
2022-12-09T23:41:02.862Z,5.93
2022-12-09T23:43:37.408Z,5.87
2022-12-09T23:46:13.052Z,7.23
2022-12-09T23:48:42.627Z,6.83
2022-12-09T23:51:20.171Z,7.30
2022-12-09T23:53:48.190Z,8.37
2022-12-09T23:56:18.560Z,9.67
2022-12-09T23:58:46.118Z,10.30
